CheckWX is a tool to help pilots better visualize weather data.  It is not intended as a substitute for an official pre-flight weather briefing.

11:57:24 UTC

KSXS METAR
Shell AHP Heliport
Fort Rucker, Alabama, USA
Current

18 mins ago

KSXS 161139Z AUTO 32006KT 10SM BKN007 OVC055 21/21 A2986 RMK AO2 RAE08 SLP111
Observed
Oct-16 @ 11:39 UTC
Wind
  • 320° at 6 KTS
Visibility
10 SM
Flight Rules
IFR
Cloud Levels
  • Broken at 700' AGL
  • Overcast at 5,500' AGL
Temperature
21°C / 70°F
Dewpoint
21°C / 70°F
Humidity
100%
Altimeter
29.86" Hg
Pressure
1011.22 hPa
Previous

28 mins ago

KSXS 161129Z AUTO 32007KT 10SM BKN007 BKN025 OVC055 21/21 A2986 RMK AO2 RAE08 CIG 006V008 SLP111
Observed
Oct-16 @ 11:29 UTC
Wind
  • 320° at 7 KTS
Visibility
10 SM
Flight Rules
IFR
Cloud Levels
  • Broken at 700' AGL
  • Broken at 2,500' AGL
  • Overcast at 5,500' AGL
Temperature
21°C / 70°F
Dewpoint
21°C / 70°F
Humidity
100%
Altimeter
29.86" Hg
Pressure
1011.22 hPa
Previous

43 mins ago

KSXS 161114Z AUTO 32007KT 7SM BKN006 OVC035 21/21 A2985 RMK AO2 RAE08 SLP107
Observed
Oct-16 @ 11:14 UTC
Wind
  • 320° at 7 KTS
Visibility
7 SM
Flight Rules
IFR
Cloud Levels
  • Broken at 600' AGL
  • Overcast at 3,500' AGL
Temperature
21°C / 70°F
Dewpoint
21°C / 70°F
Humidity
100%
Altimeter
29.85" Hg
Pressure
1010.82 hPa